sensor_id;sensor_type;location;lat;lon;timestamp;pressure;altitude;pressure_sealevel;temperature;humidity
15932;BME280;8065;49.520;11.284;2023-04-01T00:01:14;96030.19;;;12.37;80.10
15932;BME280;8065;49.520;11.284;2023-04-01T00:03:41;96035.13;;;12.35;80.41
15932;BME280;8065;49.520;11.284;2023-04-01T00:06:09;96028.66;;;12.36;80.32
15932;BME280;8065;49.520;11.284;2023-04-01T00:08:38;96025.59;;;12.34;80.37
15932;BME280;8065;49.520;11.284;2023-04-01T00:11:05;96021.81;;;12.35;80.57
15932;BME280;8065;49.520;11.284;2023-04-01T00:13:32;96019.53;;;12.37;80.46
15932;BME280;8065;49.520;11.284;2023-04-01T00:15:59;96027.94;;;12.39;80.69
15932;BME280;8065;49.520;11.284;2023-04-01T00:18:26;96013.00;;;12.31;80.84
15932;BME280;8065;49.520;11.284;2023-04-01T00:20:53;96022.84;;;12.27;80.74
15932;BME280;8065;49.520;11.284;2023-04-01T00:23:20;96024.06;;;12.33;80.62
15932;BME280;8065;49.520;11.284;2023-04-01T00:25:48;96020.28;;;12.34;80.44
15932;BME280;8065;49.520;11.284;2023-04-01T00:28:14;96016.84;;;12.33;80.32
15932;BME280;8065;49.520;11.284;2023-04-01T00:30:41;96021.44;;;12.36;79.97
15932;BME280;8065;49.520;11.284;2023-04-01T00:33:07;96014.22;;;12.37;80.04
15932;BME280;8065;49.520;11.284;2023-04-01T00:35:34;96014.25;;;12.40;80.18
15932;BME280;8065;49.520;11.284;2023-04-01T00:38:00;96010.44;;;12.38;79.73
15932;BME280;8065;49.520;11.284;2023-04-01T00:40:29;96012.59;;;12.29;79.95
15932;BME280;8065;49.520;11.284;2023-04-01T00:42:58;96015.41;;;12.43;79.42
15932;BME280;8065;49.520;11.284;2023-04-01T00:45:31;96012.28;;;12.34;79.13
15932;BME280;8065;49.520;11.284;2023-04-01T00:47:59;96024.22;;;12.47;79.15
15932;BME280;8065;49.520;11.284;2023-04-01T00:50:28;96021.13;;;12.41;79.06
15932;BME280;8065;49.520;11.284;2023-04-01T00:52:57;96017.44;;;12.53;78.21
15932;BME280;8065;49.520;11.284;2023-04-01T00:55:25;96013.50;;;12.40;78.78
15932;BME280;8065;49.520;11.284;2023-04-01T00:57:53;96020.41;;;12.48;78.20
15932;BME280;8065;49.520;11.284;2023-04-01T01:00:23;96022.69;;;12.46;78.63
15932;BME280;8065;49.520;11.284;2023-04-01T01:02:51;96010.91;;;12.47;78.04
15932;BME280;8065;49.520;11.284;2023-04-01T01:05:22;96013.22;;;12.52;77.98
15932;BME280;8065;49.520;11.284;2023-04-01T01:07:58;96015.16;;;12.55;77.64
15932;BME280;8065;49.520;11.284;2023-04-01T01:10:30;96015.91;;;12.52;77.82
15932;BME280;8065;49.520;11.284;2023-04-01T01:13:05;96009.75;;;12.48;77.56
15932;BME280;8065;49.520;11.284;2023-04-01T01:15:41;96009.13;;;12.62;77.40
15932;BME280;8065;49.520;11.284;2023-04-01T01:18:18;96013.69;;;12.61;77.53
15932;BME280;8065;49.520;11.284;2023-04-01T01:21:03;96008.84;;;12.70;77.06
15932;BME280;8065;49.520;11.284;2023-04-01T01:23:46;96006.97;;;12.74;76.66
15932;BME280;8065;49.520;11.284;2023-04-01T01:26:44;96007.03;;;12.82;76.35
15932;BME280;8065;49.520;11.284;2023-04-01T01:29:38;96013.84;;;12.75;76.59
15932;BME280;8065;49.520;11.284;2023-04-01T01:32:14;96014.91;;;12.67;76.09
15932;BME280;8065;49.520;11.284;2023-04-01T01:34:53;96009.97;;;12.69;76.25
15932;BME280;8065;49.520;11.284;2023-04-01T01:37:25;96006.09;;;12.63;76.80
15932;BME280;8065;49.520;11.284;2023-04-01T01:39:54;95987.19;;;12.75;76.24
15932;BME280;8065;49.520;11.284;2023-04-01T01:42:23;96000.91;;;12.77;76.37
15932;BME280;8065;49.520;11.284;2023-04-01T01:44:52;95989.88;;;12.79;75.91
15932;BME280;8065;49.520;11.284;2023-04-01T01:47:22;95983.44;;;12.84;75.66
15932;BME280;8065;49.520;11.284;2023-04-01T01:49:51;95991.03;;;12.82;76.31
15932;BME280;8065;49.520;11.284;2023-04-01T01:52:18;95992.78;;;12.63;76.53
15932;BME280;8065;49.520;11.284;2023-04-01T01:54:50;95989.38;;;12.66;75.94
15932;BME280;8065;49.520;11.284;2023-04-01T01:57:21;95993.91;;;12.62;75.88
15932;BME280;8065;49.520;11.284;2023-04-01T01:59:50;95993.25;;;12.72;75.95
15932;BME280;8065;49.520;11.284;2023-04-01T02:02:19;95983.97;;;12.56;76.58
15932;BME280;8065;49.520;11.284;2023-04-01T02:04:46;95984.06;;;12.66;76.22
15932;BME280;8065;49.520;11.284;2023-04-01T02:07:16;95987.19;;;12.75;76.08
15932;BME280;8065;49.520;11.284;2023-04-01T02:09:44;95988.69;;;12.73;75.77
15932;BME280;8065;49.520;11.284;2023-04-01T02:12:14;95991.81;;;12.82;75.98
15932;BME280;8065;49.520;11.284;2023-04-01T02:14:45;95982.91;;;12.67;76.11
15932;BME280;8065;49.520;11.284;2023-04-01T02:17:15;95989.31;;;12.59;76.54
15932;BME280;8065;49.520;11.284;2023-04-01T02:19:47;95987.03;;;12.58;75.93
15932;BME280;8065;49.520;11.284;2023-04-01T02:22:18;95983.19;;;12.55;75.98
15932;BME280;8065;49.520;11.284;2023-04-01T02:24:47;95981.78;;;12.68;75.71
15932;BME280;8065;49.520;11.284;2023-04-01T02:27:16;95989.13;;;12.78;75.58
15932;BME280;8065;49.520;11.284;2023-04-01T02:29:43;95981.84;;;12.75;75.35
15932;BME280;8065;49.520;11.284;2023-04-01T02:32:09;95986.06;;;12.76;75.66
15932;BME280;8065;49.520;11.284;2023-04-01T02:34:36;95990.97;;;12.74;75.39
15932;BME280;8065;49.520;11.284;2023-04-01T02:37:03;95991.72;;;12.71;75.71
15932;BME280;8065;49.520;11.284;2023-04-01T02:39:29;96006.25;;;12.77;75.29
15932;BME280;8065;49.520;11.284;2023-04-01T02:41:56;95999.34;;;12.73;75.62
15932;BME280;8065;49.520;11.284;2023-04-01T02:44:24;96002.78;;;12.73;75.19
15932;BME280;8065;49.520;11.284;2023-04-01T02:46:50;96004.72;;;12.76;75.53
15932;BME280;8065;49.520;11.284;2023-04-01T02:49:17;95997.84;;;12.75;75.32
15932;BME280;8065;49.520;11.284;2023-04-01T02:51:44;96000.09;;;12.73;75.42
15932;BME280;8065;49.520;11.284;2023-04-01T02:54:10;96007.75;;;12.75;75.00
15932;BME280;8065;49.520;11.284;2023-04-01T02:56:37;95995.41;;;12.60;75.37
15932;BME280;8065;49.520;11.284;2023-04-01T02:59:03;96009.56;;;12.67;75.26
15932;BME280;8065;49.520;11.284;2023-04-01T03:01:31;96006.97;;;12.74;75.10
15932;BME280;8065;49.520;11.284;2023-04-01T03:03:58;96003.84;;;12.65;75.64
15932;BME280;8065;49.520;11.284;2023-04-01T03:06:24;96009.09;;;12.58;74.86
15932;BME280;8065;49.520;11.284;2023-04-01T03:08:50;96009.09;;;12.58;75.02
15932;BME280;8065;49.520;11.284;2023-04-01T03:11:17;96019.03;;;12.61;74.96
15932;BME280;8065;49.520;11.284;2023-04-01T03:13:43;96011.84;;;12.65;75.16
15932;BME280;8065;49.520;11.284;2023-04-01T03:16:10;96016.41;;;12.65;75.20
15932;BME280;8065;49.520;11.284;2023-04-01T03:18:38;96019.03;;;12.61;75.39
15932;BME280;8065;49.520;11.284;2023-04-01T03:21:15;96024.38;;;12.61;75.17
15932;BME280;8065;49.520;11.284;2023-04-01T03:23:42;96030.50;;;12.65;75.46
15932;BME280;8065;49.520;11.284;2023-04-01T03:26:08;96019.75;;;12.58;75.14
15932;BME280;8065;49.520;11.284;2023-04-01T03:28:35;96017.91;;;12.62;75.34
15932;BME280;8065;49.520;11.284;2023-04-01T03:31:01;96024.44;;;12.68;75.07
15932;BME280;8065;49.520;11.284;2023-04-01T03:33:28;96027.69;;;12.51;75.40
15932;BME280;8065;49.520;11.284;2023-04-01T03:35:56;96031.94;;;12.59;75.07
15932;BME280;8065;49.520;11.284;2023-04-01T03:38:22;96028.81;;;12.50;75.51
15932;BME280;8065;49.520;11.284;2023-04-01T03:40:49;96026.66;;;12.63;75.04
15932;BME280;8065;49.520;11.284;2023-04-01T03:43:15;96019.31;;;12.53;75.38
15932;BME280;8065;49.520;11.284;2023-04-01T03:45:45;96033.28;;;12.39;75.85
15932;BME280;8065;49.520;11.284;2023-04-01T03:48:12;96032.63;;;12.49;75.59
15932;BME280;8065;49.520;11.284;2023-04-01T03:50:39;96029.63;;;12.54;75.19
15932;BME280;8065;49.520;11.284;2023-04-01T03:53:06;96037.53;;;12.47;75.42
15932;BME280;8065;49.520;11.284;2023-04-01T03:55:33;96039.16;;;12.55;75.61
15932;BME280;8065;49.520;11.284;2023-04-01T03:58:01;96034.16;;;12.50;75.58
15932;BME280;8065;49.520;11.284;2023-04-01T04:00:28;96034.22;;;12.57;75.33
15932;BME280;8065;49.520;11.284;2023-04-01T04:02:54;96037.97;;;12.53;75.41
15932;BME280;8065;49.520;11.284;2023-04-01T04:05:21;96035.28;;;12.49;75.42
15932;BME280;8065;49.520;11.284;2023-04-01T04:07:48;96041.41;;;12.53;75.37
15932;BME280;8065;49.520;11.284;2023-04-01T04:10:16;96039.56;;;12.57;75.07
15932;BME280;8065;49.520;11.284;2023-04-01T04:12:43;96050.13;;;12.50;75.45
15932;BME280;8065;49.520;11.284;2023-04-01T04:15:10;96034.22;;;12.57;74.91
15932;BME280;8065;49.520;11.284;2023-04-01T04:17:36;96027.06;;;12.65;74.85
15932;BME280;8065;49.520;11.284;2023-04-01T04:20:04;96031.22;;;12.62;74.99
15932;BME280;8065;49.520;11.284;2023-04-01T04:22:31;96047.88;;;12.52;75.50
15932;BME280;8065;49.520;11.284;2023-04-01T04:24:57;96047.13;;;12.55;75.39
15932;BME280;8065;49.520;11.284;2023-04-01T04:27:25;96042.19;;;12.54;75.28
15932;BME280;8065;49.520;11.284;2023-04-01T04:29:51;96037.13;;;12.45;75.12
15932;BME280;8065;49.520;11.284;2023-04-01T04:32:18;96055.50;;;12.54;74.96
15932;BME280;8065;49.520;11.284;2023-04-01T04:34:44;96041.00;;;12.51;74.93
15932;BME280;8065;49.520;11.284;2023-04-01T04:37:11;96052.41;;;12.48;74.83
15932;BME280;8065;49.520;11.284;2023-04-01T04:39:37;96050.94;;;12.54;74.55
15932;BME280;8065;49.520;11.284;2023-04-01T04:42:05;96052.47;;;12.55;74.21
15932;BME280;8065;49.520;11.284;2023-04-01T04:44:33;96054.00;;;12.56;74.38
15932;BME280;8065;49.520;11.284;2023-04-01T04:46:59;96058.19;;;12.57;74.15
15932;BME280;8065;49.520;11.284;2023-04-01T04:49:26;96050.66;;;12.63;74.16
15932;BME280;8065;49.520;11.284;2023-04-01T04:51:52;96049.84;;;12.59;73.88
15932;BME280;8065;49.520;11.284;2023-04-01T04:54:18;96061.28;;;12.59;73.91
15932;BME280;8065;49.520;11.284;2023-04-01T04:56:45;96056.31;;;12.58;73.95
15932;BME280;8065;49.520;11.284;2023-04-01T04:59:11;96052.69;;;12.39;74.67
15932;BME280;8065;49.520;11.284;2023-04-01T05:01:39;96054.72;;;12.53;74.97
15932;BME280;8065;49.520;11.284;2023-04-01T05:04:05;96051.66;;;12.51;74.69
15932;BME280;8065;49.520;11.284;2023-04-01T05:06:32;96052.91;;;12.61;74.50
15932;BME280;8065;49.520;11.284;2023-04-01T05:08:58;96058.59;;;12.59;74.98
15932;BME280;8065;49.520;11.284;2023-04-01T05:11:25;96052.13;;;12.60;75.42
15932;BME280;8065;49.520;11.284;2023-04-01T05:13:52;96052.13;;;12.60;75.03
15932;BME280;8065;49.520;11.284;2023-04-01T05:16:20;96049.38;;;12.50;75.73
15932;BME280;8065;49.520;11.284;2023-04-01T05:18:47;96058.53;;;12.52;75.42
15932;BME280;8065;49.520;11.284;2023-04-01T05:21:15;96061.53;;;12.47;75.71
15932;BME280;8065;49.520;11.284;2023-04-01T05:23:42;96064.53;;;12.45;76.02
15932;BME280;8065;49.520;11.284;2023-04-01T05:26:10;96066.84;;;12.47;76.55
15932;BME280;8065;49.520;11.284;2023-04-01T05:28:37;96056.16;;;12.43;76.56
15932;BME280;8065;49.520;11.284;2023-04-01T05:31:04;96053.53;;;12.47;76.65
15932;BME280;8065;49.520;11.284;2023-04-01T05:33:31;96063.38;;;12.43;76.45
15932;BME280;8065;49.520;11.284;2023-04-01T05:36:07;96053.09;;;12.41;76.60
15932;BME280;8065;49.520;11.284;2023-04-01T05:38:34;96048.47;;;12.38;76.97
15932;BME280;8065;49.520;11.284;2023-04-01T05:41:01;96056.50;;;12.42;77.04
15932;BME280;8065;49.520;11.284;2023-04-01T05:43:28;96045.13;;;12.45;76.93
15932;BME280;8065;49.520;11.284;2023-04-01T05:45:55;96049.31;;;12.46;76.73
15932;BME280;8065;49.520;11.284;2023-04-01T05:48:22;96048.81;;;12.33;76.85
15932;BME280;8065;49.520;11.284;2023-04-01T05:50:48;96056.13;;;12.40;77.15
15932;BME280;8065;49.520;11.284;2023-04-01T05:53:17;96049.31;;;12.46;76.70
15932;BME280;8065;49.520;11.284;2023-04-01T05:55:43;96043.16;;;12.38;76.89
15932;BME280;8065;49.520;11.284;2023-04-01T05:58:10;96049.97;;;12.36;76.90
15932;BME280;8065;49.520;11.284;2023-04-01T06:00:36;96055.38;;;12.43;76.90
15932;BME280;8065;49.520;11.284;2023-04-01T06:03:03;96049.69;;;12.44;76.61
15932;BME280;8065;49.520;11.284;2023-04-01T06:05:30;96057.72;;;12.48;76.54
15932;BME280;8065;49.520;11.284;2023-04-01T06:08:09;96053.53;;;12.47;76.08
15932;BME280;8065;49.520;11.284;2023-04-01T06:10:47;96050.94;;;12.54;76.00
15932;BME280;8065;49.520;11.284;2023-04-01T06:13:25;96066.53;;;12.52;75.91
15932;BME280;8065;49.520;11.284;2023-04-01T06:15:59;96066.03;;;12.43;76.01
15932;BME280;8065;49.520;11.284;2023-04-01T06:18:48;96066.28;;;12.31;75.52
15932;BME280;8065;49.520;11.284;2023-04-01T06:21:47;96067.72;;;12.25;76.33
15932;BME280;8065;49.520;11.284;2023-04-01T06:24:41;96076.69;;;12.43;76.27
15932;BME280;8065;49.520;11.284;2023-04-01T06:27:24;96066.59;;;12.26;76.69
15932;BME280;8065;49.520;11.284;2023-04-01T06:30:02;96064.59;;;12.49;75.90
15932;BME280;8065;49.520;11.284;2023-04-01T06:32:44;96075.28;;;12.53;75.90
15932;BME280;8065;49.520;11.284;2023-04-01T06:35:22;96076.03;;;12.53;75.70
15932;BME280;8065;49.520;11.284;2023-04-01T06:38:25;96073.78;;;12.55;75.85
15932;BME280;8065;49.520;11.284;2023-04-01T06:43:55;96078.63;;;12.46;75.43
15932;BME280;8065;49.520;11.284;2023-04-01T06:46:34;96082.44;;;12.45;75.53
15932;BME280;8065;49.520;11.284;2023-04-01T06:49:16;96071.38;;;12.43;75.44
15932;BME280;8065;49.520;11.284;2023-04-01T06:51:51;96076.13;;;12.60;74.79
15932;BME280;8065;49.520;11.284;2023-04-01T06:54:23;96074.59;;;12.59;75.00
15932;BME280;8065;49.520;11.284;2023-04-01T06:56:56;96081.44;;;12.60;74.59
15932;BME280;8065;49.520;11.284;2023-04-01T06:59:28;96072.31;;;12.61;74.86
15932;BME280;8065;49.520;11.284;2023-04-01T07:01:58;96069.41;;;12.73;73.74
15932;BME280;8065;49.520;11.284;2023-04-01T07:04:29;96070.94;;;12.74;73.95
15932;BME280;8065;49.520;11.284;2023-04-01T07:06:58;96064.94;;;12.85;73.77
15932;BME280;8065;49.520;11.284;2023-04-01T07:09:28;96071.09;;;12.89;73.74
15932;BME280;8065;49.520;11.284;2023-04-01T07:12:01;96075.47;;;12.70;73.37
15932;BME280;8065;49.520;11.284;2023-04-01T07:14:32;96063.47;;;12.91;73.08
15932;BME280;8065;49.520;11.284;2023-04-01T07:17:04;96073.41;;;12.94;72.85
15932;BME280;8065;49.520;11.284;2023-04-01T07:19:37;96067.34;;;12.97;72.72
15932;BME280;8065;49.520;11.284;2023-04-01T07:22:18;96068.91;;;13.05;72.19
15932;BME280;8065;49.520;11.284;2023-04-01T07:24:47;96070.41;;;12.99;71.47
15932;BME280;8065;49.520;11.284;2023-04-01T07:27:14;96073.06;;;12.99;71.54
15932;BME280;8065;49.520;11.284;2023-04-01T07:29:42;96071.75;;;12.78;71.58
15932;BME280;8065;49.520;11.284;2023-04-01T07:32:24;96059.69;;;12.92;71.62
15932;BME280;8065;49.520;11.284;2023-04-01T07:35:04;96066.41;;;12.78;71.17
15932;BME280;8065;49.520;11.284;2023-04-01T07:37:39;96060.53;;;13.06;70.63
15932;BME280;8065;49.520;11.284;2023-04-01T07:40:18;96063.66;;;13.16;70.27
15932;BME280;8065;49.520;11.284;2023-04-01T07:43:05;96067.53;;;13.18;70.92
15932;BME280;8065;49.520;11.284;2023-04-01T07:45:42;96068.38;;;13.29;70.20
15932;BME280;8065;49.520;11.284;2023-04-01T07:48:22;96060.97;;;13.12;69.93
15932;BME280;8065;49.520;11.284;2023-04-01T07:50:56;96071.34;;;13.17;69.61
15932;BME280;8065;49.520;11.284;2023-04-01T07:53:30;96079.66;;;13.16;69.87
15932;BME280;8065;49.520;11.284;2023-04-01T07:56:05;96072.91;;;13.25;69.69
15932;BME280;8065;49.520;11.284;2023-04-01T07:58:39;96092.66;;;13.17;69.36
15932;BME280;8065;49.520;11.284;2023-04-01T08:01:14;96090.47;;;13.26;69.24
15932;BME280;8065;49.520;11.284;2023-04-01T08:03:57;96085.06;;;13.19;69.37
15932;BME280;8065;49.520;11.284;2023-04-01T08:06:31;96093.47;;;13.21;69.55
15932;BME280;8065;49.520;11.284;2023-04-01T08:09:05;96080.00;;;13.55;68.72
15932;BME280;8065;49.520;11.284;2023-04-01T08:11:43;96073.19;;;13.61;68.96
15932;BME280;8065;49.520;11.284;2023-04-01T08:14:19;96074.38;;;13.67;68.60
15932;BME280;8065;49.520;11.284;2023-04-01T08:16:56;96091.44;;;13.52;68.63
15932;BME280;8065;49.520;11.284;2023-04-01T08:19:34;96075.47;;;13.59;68.13
15932;BME280;8065;49.520;11.284;2023-04-01T08:22:10;96073.19;;;13.61;68.23
15932;BME280;8065;49.520;11.284;2023-04-01T08:24:41;96080.84;;;13.66;68.47
15932;BME280;8065;49.520;11.284;2023-04-01T08:27:12;96074.75;;;13.69;67.95
15932;BME280;8065;49.520;11.284;2023-04-01T08:29:46;96087.72;;;13.67;68.17
15932;BME280;8065;49.520;11.284;2023-04-01T08:32:22;96084.59;;;13.58;67.66
15932;BME280;8065;49.520;11.284;2023-04-01T08:34:58;96076.94;;;13.53;67.69
15932;BME280;8065;49.520;11.284;2023-04-01T08:37:31;96080.44;;;13.64;68.17
15932;BME280;8065;49.520;11.284;2023-04-01T08:40:02;96081.63;;;13.70;67.11
15932;BME280;8065;49.520;11.284;2023-04-01T08:42:43;96077.69;;;13.50;68.35
15932;BME280;8065;49.520;11.284;2023-04-01T08:45:30;96074.34;;;13.63;68.37
15932;BME280;8065;49.520;11.284;2023-04-01T08:48:29;96085.25;;;13.40;68.45
15932;BME280;8065;49.520;11.284;2023-04-01T08:51:10;96079.13;;;13.36;68.18
15932;BME280;8065;49.520;11.284;2023-04-01T08:53:54;96064.78;;;13.59;68.21
15932;BME280;8065;49.520;11.284;2023-04-01T08:56:26;96064.47;;;13.67;67.94
15932;BME280;8065;49.520;11.284;2023-04-01T08:59:30;96070.13;;;13.59;68.15
15932;BME280;8065;49.520;11.284;2023-04-01T09:02:12;96063.91;;;13.40;68.17
15932;BME280;8065;49.520;11.284;2023-04-01T09:04:57;96057.78;;;13.40;68.17
15932;BME280;8065;49.520;11.284;2023-04-01T09:07:36;96062.47;;;13.54;67.93
15932;BME280;8065;49.520;11.284;2023-04-01T09:10:27;96062.09;;;13.55;67.42
15932;BME280;8065;49.520;11.284;2023-04-01T09:13:11;96077.28;;;13.48;67.29
15932;BME280;8065;49.520;11.284;2023-04-01T09:15:53;96071.53;;;13.42;67.18
15932;BME280;8065;49.520;11.284;2023-04-01T09:18:55;96071.34;;;13.72;67.07
15932;BME280;8065;49.520;11.284;2023-04-01T09:21:43;96059.50;;;13.66;66.79
15932;BME280;8065;49.520;11.284;2023-04-01T09:27:04;96073.63;;;13.70;67.43
15932;BME280;8065;49.520;11.284;2023-04-01T09:32:48;96065.63;;;13.73;67.27
15932;BME280;8065;49.520;11.284;2023-04-01T09:35:23;96067.19;;;13.78;67.18
15932;BME280;8065;49.520;11.284;2023-04-01T09:37:57;96065.69;;;13.81;67.17
15932;BME280;8065;49.520;11.284;2023-04-01T09:40:42;96075.63;;;13.87;67.58
15932;BME280;8065;49.520;11.284;2023-04-01T09:43:22;96072.94;;;13.87;67.64
15932;BME280;8065;49.520;11.284;2023-04-01T09:45:58;96064.91;;;13.80;67.36
15932;BME280;8065;49.520;11.284;2023-04-01T09:51:39;96068.00;;;13.89;68.44
15932;BME280;8065;49.520;11.284;2023-04-01T09:54:16;96064.97;;;13.94;70.08
15932;BME280;8065;49.520;11.284;2023-04-01T09:57:16;96073.34;;;13.89;70.28
15932;BME280;8065;49.520;11.284;2023-04-01T10:03:23;96072.50;;;13.71;71.20
15932;BME280;8065;49.520;11.284;2023-04-01T10:06:18;96071.00;;;13.77;72.34
15932;BME280;8065;49.520;11.284;2023-04-01T10:12:44;96080.09;;;13.65;73.32
15932;BME280;8065;49.520;11.284;2023-04-01T10:15:38;96088.41;;;13.57;72.83
15932;BME280;8065;49.520;11.284;2023-04-01T10:18:55;96078.03;;;13.44;74.78
15932;BME280;8065;49.520;11.284;2023-04-01T10:21:59;96075.47;;;13.59;74.96
15932;BME280;8065;49.520;11.284;2023-04-01T10:24:42;96083.84;;;13.57;76.47
15932;BME280;8065;49.520;11.284;2023-04-01T10:27:40;96083.41;;;13.48;76.05
15932;BME280;8065;49.520;11.284;2023-04-01T10:30:52;96090.66;;;13.51;76.87
15932;BME280;8065;49.520;11.284;2023-04-01T10:33:52;96091.75;;;13.43;75.02
15932;BME280;8065;49.520;11.284;2023-04-01T10:36:43;96094.50;;;13.54;75.95
15932;BME280;8065;49.520;11.284;2023-04-01T10:39:47;96105.06;;;13.39;76.32
15932;BME280;8065;49.520;11.284;2023-04-01T10:42:40;96096.09;;;13.18;74.12
15932;BME280;8065;49.520;11.284;2023-04-01T10:52:01;96081.66;;;13.22;76.71
15932;BME280;8065;49.520;11.284;2023-04-01T10:54:46;96079.25;;;13.10;77.14
15932;BME280;8065;49.520;11.284;2023-04-01T10:57:45;96075.16;;;13.20;77.51
15932;BME280;8065;49.520;11.284;2023-04-01T11:00:36;96082.13;;;13.31;77.91
15932;BME280;8065;49.520;11.284;2023-04-01T11:03:46;96076.72;;;13.24;79.16
15932;BME280;8065;49.520;11.284;2023-04-01T11:06:57;96074.50;;;13.33;79.74
15932;BME280;8065;49.520;11.284;2023-04-01T11:10:01;96074.47;;;13.26;80.33
15932;BME280;8065;49.520;11.284;2023-04-01T11:19:07;96073.50;;;13.08;81.97
15932;BME280;8065;49.520;11.284;2023-04-01T11:27:56;96082.81;;;12.80;85.50
15932;BME280;8065;49.520;11.284;2023-04-01T11:30:38;96091.19;;;12.83;84.99
15932;BME280;8065;49.520;11.284;2023-04-01T11:33:12;96083.25;;;12.86;85.33
15932;BME280;8065;49.520;11.284;2023-04-01T11:35:57;96081.34;;;12.87;85.61
15932;BME280;8065;49.520;11.284;2023-04-01T11:38:49;96088.53;;;12.83;87.74
15932;BME280;8065;49.520;11.284;2023-04-01T11:41:30;96078.34;;;12.92;85.95
15932;BME280;8065;49.520;11.284;2023-04-01T11:44:11;96092.41;;;12.89;86.77
15932;BME280;8065;49.520;11.284;2023-04-01T11:46:49;96090.88;;;12.88;86.96
15932;BME280;8065;49.520;11.284;2023-04-01T11:49:30;96087.94;;;13.00;86.19
15932;BME280;8065;49.520;11.284;2023-04-01T11:55:19;96090.06;;;12.84;87.52
15932;BME280;8065;49.520;11.284;2023-04-01T11:58:18;96084.06;;;12.94;86.77
15932;BME280;8065;49.520;11.284;2023-04-01T12:00:57;96096.28;;;12.95;87.35
15932;BME280;8065;49.520;11.284;2023-04-01T12:03:43;96091.13;;;12.75;87.25
15932;BME280;8065;49.520;11.284;2023-04-01T12:06:16;96105.44;;;12.97;87.01
15932;BME280;8065;49.520;11.284;2023-04-01T12:08:52;96094.72;;;12.90;87.25
15932;BME280;8065;49.520;11.284;2023-04-01T12:11:27;96098.59;;;13.00;87.05
15932;BME280;8065;49.520;11.284;2023-04-01T12:14:03;96094.03;;;13.04;87.25
15932;BME280;8065;49.520;11.284;2023-04-01T12:16:46;96096.22;;;12.88;86.57
15932;BME280;8065;49.520;11.284;2023-04-01T12:19:26;96098.59;;;13.00;86.67
15932;BME280;8065;49.520;11.284;2023-04-01T12:22:07;96097.88;;;13.06;85.94
15932;BME280;8065;49.520;11.284;2023-04-01T12:24:45;96102.41;;;12.99;86.27
15932;BME280;8065;49.520;11.284;2023-04-01T12:27:23;96097.94;;;13.13;86.46
15932;BME280;8065;49.520;11.284;2023-04-01T12:30:06;96108.19;;;13.08;85.75
15932;BME280;8065;49.520;11.284;2023-04-01T12:32:43;96103.34;;;13.17;85.92
15932;BME280;8065;49.520;11.284;2023-04-01T12:35:17;96103.38;;;13.21;85.47
15932;BME280;8065;49.520;11.284;2023-04-01T12:37:53;96105.28;;;13.20;85.71
15932;BME280;8065;49.520;11.284;2023-04-01T12:40:31;96104.81;;;13.14;85.94
15932;BME280;8065;49.520;11.284;2023-04-01T12:43:17;96105.91;;;13.10;85.87
15932;BME280;8065;49.520;11.284;2023-04-01T12:45:55;96100.34;;;13.22;85.34
15932;BME280;8065;49.520;11.284;2023-04-01T12:48:58;96103.34;;;13.17;85.46
15932;BME280;8065;49.520;11.284;2023-04-01T12:51:41;96107.72;;;12.95;84.98
15932;BME280;8065;49.520;11.284;2023-04-01T12:57:33;96103.13;;;12.96;86.27
15932;BME280;8065;49.520;11.284;2023-04-01T13:00:16;96111.06;;;12.89;84.95
15932;BME280;8065;49.520;11.284;2023-04-01T13:03:02;96094.84;;;13.08;84.99
15932;BME280;8065;49.520;11.284;2023-04-01T13:06:12;96107.75;;;13.02;85.60
15932;BME280;8065;49.520;11.284;2023-04-01T13:08:49;96100.72;;;12.84;86.31
15932;BME280;8065;49.520;11.284;2023-04-01T13:11:24;96110.03;;;13.04;85.21
15932;BME280;8065;49.520;11.284;2023-04-01T13:14:18;96104.56;;;12.86;86.87
15932;BME280;8065;49.520;11.284;2023-04-01T13:16:54;96109.59;;;12.95;85.96
15932;BME280;8065;49.520;11.284;2023-04-01T13:19:28;96103.53;;;12.98;87.10
15932;BME280;8065;49.520;11.284;2023-04-01T13:22:03;96104.69;;;12.97;86.46
15932;BME280;8065;49.520;11.284;2023-04-01T13:24:43;96112.34;;;13.05;86.74
15932;BME280;8065;49.520;11.284;2023-04-01T13:27:18;96102.50;;;13.13;85.85
15932;BME280;8065;49.520;11.284;2023-04-01T13:29:59;96110.44;;;13.06;85.51
15932;BME280;8065;49.520;11.284;2023-04-01T13:32:33;96109.81;;;13.16;86.01
15932;BME280;8065;49.520;11.284;2023-04-01T13:35:14;96111.53;;;13.01;86.07
15932;BME280;8065;49.520;11.284;2023-04-01T13:37:52;96118.44;;;13.06;85.73
15932;BME280;8065;49.520;11.284;2023-04-01T13:40:33;96114.00;;;13.17;85.87
15932;BME280;8065;49.520;11.284;2023-04-01T13:43:10;96107.94;;;13.20;85.53
15932;BME280;8065;49.520;11.284;2023-04-01T13:45:51;96118.13;;;13.11;86.70
15932;BME280;8065;49.520;11.284;2023-04-01T13:48:29;96117.38;;;13.14;85.54
15932;BME280;8065;49.520;11.284;2023-04-01T13:51:29;96111.00;;;13.22;85.79
15932;BME280;8065;49.520;11.284;2023-04-01T13:54:21;96114.00;;;13.17;85.94
15932;BME280;8065;49.520;11.284;2023-04-01T13:57:00;96119.22;;;13.06;85.48
15932;BME280;8065;49.520;11.284;2023-04-01T13:59:48;96118.22;;;13.18;85.28
15932;BME280;8065;49.520;11.284;2023-04-01T14:02:33;96121.66;;;13.19;84.73
15932;BME280;8065;49.520;11.284;2023-04-01T14:05:15;96116.03;;;13.31;84.41
15932;BME280;8065;49.520;11.284;2023-04-01T14:07:56;96118.59;;;13.20;84.88
15932;BME280;8065;49.520;11.284;2023-04-01T14:10:34;96108.69;;;13.17;85.95
15932;BME280;8065;49.520;11.284;2023-04-01T14:13:11;96116.31;;;13.19;85.21
15932;BME280;8065;49.520;11.284;2023-04-01T14:18:57;96126.91;;;13.15;85.74
15932;BME280;8065;49.520;11.284;2023-04-01T14:21:33;96127.34;;;13.17;85.17
15932;BME280;8065;49.520;11.284;2023-04-01T14:24:20;96122.81;;;13.21;84.77
15932;BME280;8065;49.520;11.284;2023-04-01T14:29:51;96127.66;;;13.12;85.21
15932;BME280;8065;49.520;11.284;2023-04-01T14:32:27;96133.13;;;13.23;85.25
15932;BME280;8065;49.520;11.284;2023-04-01T14:35:12;96133.88;;;13.23;85.72